Airfield :
LOGIN :

Register | Disclaimer

   EN    FR    IT 

 










Legend :    VFR   Marginal VFR   IFR   Intensive IFR   Very Intensive IFR
Visi :
Ceiling :
>= 8 km
>= 3000ft
5 to 8 km
1000 to 3000 ft
1500m to 5 km
500 to 1000 ft
800 to 1500m
200 to 500 ft
< 800m
< 200 ft
Symbols :   Thunderstorms  Fog  Heavy snow  Heavy precipitations  Wind > 20 kt
SIGMETs :     Misc.  Thunderstorms  Icing  Turbulence  Mountain Waves  Volcanic Ashes







- Airport Elevation : 390 ft
- IATA code : NQY
- Download approach charts


EGHQ - Newquay

CURRENT METAR :
  • 241650Z 35008KT 9999 FEW032 13/05 Q1038

EXPIRED METARs :
  • 241620Z 35007KT 320V020 9999 FEW032 13/06 Q1038
  • 241550Z 01009KT 9999 FEW032 13/06 Q1038
  • 241520Z 35009KT 320V030 9999 FEW032 13/06 Q1039
  • 241450Z 33009KT 9999 FEW032 14/06 Q1039
  • 241420Z 32010KT 9999 FEW045 14/06 Q1039

TAF TAF EGHQ
Valid from the 24 at 15:00 until the 24 at 21:00 UTC


241356Z 2415/2421 02006KT 9999 FEW045
No reported NOTAMs for that airfield.



MET'MAP, your aeronautical weather chart ! - Copyright ORBIFLY December 2007 - Disclaimer

ORBIFLY MET'MAP TEAM :

Programming & Development : Alexandra Zaïnal
Concept & Development : Baudouin d'Aumeries
Co-Development & Prog : Marc-Olivier Méhu
Technical & hardware support : Manuel Goepfert

Contact : metmap@orbifly.com




SOURCES & CREDITS :

   NOAA